CheckWX is a tool to help pilots better visualize weather data.  It is not intended as a substitute for an official pre-flight weather briefing.

21:01:23 UTC

KHBI METAR
Asheboro Regional Airport
Asheboro, North Carolina, USA
Current

21 mins ago

KHBI 232040Z AUTO 20011KT 10SM CLR 29/21 A3018 RMK AO2 T02850207
Observed
May-23 @ 20:40 UTC
Wind
  • 200° at 11 KTS
Visibility
10 SM
Flight Rules
VFR
Cloud Levels
  • Clear skies
Temperature
29°C / 84°F
Dewpoint
21°C / 70°F
Heat Index
31°C / 88°F
Humidity
62%
Altimeter
30.18" Hg
Pressure
1022.02 hPa
Previous

2 hours ago

KHBI 231920Z AUTO 21009KT 10SM SCT031 SCT100 BKN120 28/20 A3022 RMK AO2 T02790202
Observed
May-23 @ 19:20 UTC
Wind
  • 210° at 9 KTS
Visibility
10 SM
Flight Rules
VFR
Cloud Levels
  • Scattered at 3,100' AGL
  • Scattered at 10,000' AGL
  • Broken at 12,000' AGL
Temperature
28°C / 82°F
Dewpoint
20°C / 68°F
Heat Index
29°C / 85°F
Humidity
62%
Altimeter
30.22" Hg
Pressure
1023.42 hPa
Previous

2 hours ago

KHBI 231900Z AUTO 22009G16KT 10SM SCT031 BKN095 28/20 A3023 RMK AO2 T02820201
Observed
May-23 @ 19:00 UTC
Wind
  • 220° at 9 KTS
  • Gusting to 16 KTS
Visibility
10 SM
Flight Rules
VFR
Cloud Levels
  • Scattered at 3,100' AGL
  • Broken at 9,500' AGL
Temperature
28°C / 82°F
Dewpoint
20°C / 68°F
Heat Index
29°C / 85°F
Humidity
62%
Altimeter
30.23" Hg
Pressure
1023.72 hPa